Terminal Aerodrome Forecast
Issued by NWS

Home | Current Version | Previous Version | Text Only | Print | Product List | Glossary Off
Versions: 1 2 3 4 5 6 7 8 9 10 11 12 13 14

000
FTUS45 KGGW 261700
TAFSDY
TAF
KSDY 261720Z 2618/2718 29022KT P6SM SCT040
     FM270300 33010KT P6SM FEW090
     FM270900 VRB06KT P6SM FEW100
      AMD LTD TO CLD VIS AND WIND=

USA.gov is the U.S. government's official web portal to all federal, state and local government web resources and services.